createdAt,value
2018-12-18T00:00:15.697Z,3.91
2018-12-18T00:05:25.648Z,3.79
2018-12-18T00:10:34.520Z,3.53
2018-12-18T00:15:38.044Z,3.47
2018-12-18T00:20:41.440Z,3.22
2018-12-18T00:25:44.991Z,3.16
2018-12-18T00:30:48.392Z,3.04
2018-12-18T00:35:51.848Z,2.86
2018-12-18T00:40:55.656Z,2.86
2018-12-18T00:45:59.132Z,2.70
2018-12-18T00:51:02.737Z,2.55
2018-12-18T00:56:06.302Z,2.47
2018-12-18T01:01:09.939Z,2.47
2018-12-18T01:06:13.492Z,2.22
2018-12-18T01:11:17.182Z,2.30
2018-12-18T01:16:20.987Z,2.26
2018-12-18T01:21:24.536Z,2.17
2018-12-18T01:26:27.968Z,2.17
2018-12-18T01:31:31.481Z,2.15
2018-12-18T01:36:35.082Z,2.12
2018-12-18T01:41:38.512Z,1.93
2018-12-18T01:46:42.183Z,1.90
2018-12-18T01:51:45.580Z,1.91
2018-12-18T01:56:49.085Z,2.06
2018-12-18T02:01:52.740Z,2.24
2018-12-18T02:06:56.176Z,2.25
2018-12-18T02:11:59.708Z,2.33
2018-12-18T02:17:03.232Z,2.41
2018-12-18T02:22:06.643Z,2.59
2018-12-18T02:27:10.228Z,2.59
2018-12-18T02:32:13.644Z,2.63
2018-12-18T02:37:17.062Z,2.69
2018-12-18T02:42:20.841Z,2.74
2018-12-18T02:47:24.291Z,2.74
2018-12-18T02:52:28.561Z,2.78
2018-12-18T02:57:32.049Z,2.81
2018-12-18T03:02:35.550Z,2.98
2018-12-18T03:07:38.961Z,3.07
2018-12-18T03:12:42.652Z,3.09
2018-12-18T03:17:46.156Z,3.02
2018-12-18T03:22:49.705Z,3.09
2018-12-18T03:27:53.212Z,3.12
2018-12-18T03:32:58.474Z,3.14
2018-12-18T03:38:01.893Z,3.17
2018-12-18T03:43:05.568Z,3.23
2018-12-18T03:48:09.318Z,3.21
2018-12-18T03:53:13.012Z,3.31
2018-12-18T03:58:16.432Z,3.30
2018-12-18T04:03:20.002Z,3.35
2018-12-18T04:08:23.408Z,3.34
2018-12-18T04:13:26.902Z,3.40
2018-12-18T04:18:30.301Z,3.48
2018-12-18T04:23:33.939Z,3.55
2018-12-18T04:28:37.485Z,3.57
2018-12-18T04:33:40.940Z,3.57
2018-12-18T04:38:44.346Z,3.62
2018-12-18T04:43:48.064Z,3.63
2018-12-18T04:48:51.676Z,3.67
2018-12-18T04:53:55.079Z,3.63
2018-12-18T04:58:58.710Z,3.67
2018-12-18T05:04:03.921Z,3.73
2018-12-18T05:09:09.899Z,3.76
2018-12-18T05:14:13.441Z,3.76
2018-12-18T05:19:16.894Z,3.69
2018-12-18T05:24:20.356Z,3.71
2018-12-18T05:29:23.756Z,3.71
2018-12-18T05:34:27.300Z,3.73
2018-12-18T05:39:30.848Z,3.71
2018-12-18T05:44:34.254Z,3.74
2018-12-18T05:49:37.692Z,3.75
2018-12-18T05:54:41.216Z,3.81
2018-12-18T05:59:44.661Z,3.78
2018-12-18T06:04:48.294Z,3.76
2018-12-18T06:09:51.843Z,3.75
2018-12-18T06:14:55.516Z,3.76
2018-12-18T06:19:59.232Z,3.69
2018-12-18T06:25:02.680Z,3.70
2018-12-18T06:30:06.978Z,3.71
2018-12-18T06:35:10.697Z,3.68
2018-12-18T06:40:14.483Z,3.67
2018-12-18T06:45:17.927Z,3.58
2018-12-18T06:50:21.611Z,3.62
2018-12-18T06:55:25.792Z,3.61
2018-12-18T07:00:29.324Z,3.64
2018-12-18T07:05:32.790Z,3.67
2018-12-18T07:10:36.323Z,3.67
2018-12-18T07:15:39.944Z,3.69
2018-12-18T07:20:43.560Z,3.74
2018-12-18T07:25:47.012Z,3.81
2018-12-18T07:30:50.691Z,3.81
2018-12-18T07:35:54.145Z,3.84
2018-12-18T07:40:57.564Z,3.86
2018-12-18T07:46:01.132Z,3.92
2018-12-18T07:51:04.535Z,3.97
2018-12-18T07:56:08.156Z,3.95
2018-12-18T08:01:11.589Z,3.91
2018-12-18T08:06:15.144Z,3.97
2018-12-18T08:11:18.804Z,4.06
2018-12-18T08:16:22.323Z,4.14
2018-12-18T08:21:25.869Z,4.25
2018-12-18T08:26:29.364Z,4.34
2018-12-18T08:31:32.783Z,4.41
2018-12-18T08:36:36.324Z,4.47
2018-12-18T08:41:39.744Z,4.52
2018-12-18T08:46:43.318Z,4.63
2018-12-18T08:51:46.920Z,4.64
2018-12-18T08:56:50.325Z,4.71
2018-12-18T09:01:53.871Z,4.69
2018-12-18T09:06:57.520Z,4.70
2018-12-18T09:12:00.924Z,4.66
2018-12-18T09:17:06.721Z,4.75
2018-12-18T09:22:10.464Z,4.75
2018-12-18T09:27:13.968Z,4.80
2018-12-18T09:32:17.440Z,4.86
2018-12-18T09:37:20.865Z,4.98
2018-12-18T09:42:29.837Z,5.09
2018-12-18T09:47:33.297Z,5.19
2018-12-18T09:52:36.820Z,5.35
2018-12-18T09:57:45.813Z,5.44
2018-12-18T10:02:49.268Z,5.49
2018-12-18T10:07:52.841Z,5.66
2018-12-18T10:12:57.236Z,5.67
2018-12-18T10:18:00.689Z,5.69
2018-12-18T10:23:04.160Z,5.80
2018-12-18T10:28:07.744Z,5.74
2018-12-18T10:33:11.280Z,5.56
2018-12-18T10:38:14.858Z,5.66
2018-12-18T10:43:18.472Z,5.51
2018-12-18T10:48:21.992Z,5.61
2018-12-18T10:53:25.592Z,5.46
2018-12-18T10:58:29.164Z,5.60
2018-12-18T11:03:32.836Z,5.37
2018-12-18T11:08:36.505Z,5.63
2018-12-18T11:13:39.928Z,5.79
2018-12-18T11:18:43.432Z,5.87
2018-12-18T11:23:46.931Z,5.85
2018-12-18T11:28:50.455Z,5.63
2018-12-18T11:33:53.972Z,5.81
2018-12-18T11:38:57.527Z,5.84
2018-12-18T11:44:01.108Z,5.90
2018-12-18T11:49:04.602Z,6.03
2018-12-18T11:54:08.189Z,5.87
2018-12-18T11:59:11.707Z,5.70
2018-12-18T12:04:15.156Z,5.58
2018-12-18T12:09:18.584Z,5.66
2018-12-18T12:14:22.001Z,5.83
2018-12-18T12:19:25.506Z,5.78
2018-12-18T12:24:28.969Z,5.83
2018-12-18T12:29:32.422Z,5.70
2018-12-18T12:34:35.837Z,5.82
2018-12-18T12:39:39.411Z,5.79
2018-12-18T12:44:42.853Z,5.84
2018-12-18T12:49:46.258Z,6.04
2018-12-18T12:54:49.848Z,6.16
2018-12-18T12:59:53.296Z,6.10
2018-12-18T13:04:56.688Z,6.17
2018-12-18T13:10:00.405Z,6.11
2018-12-18T13:15:05.128Z,6.35
2018-12-18T13:20:08.808Z,6.15
2018-12-18T13:25:12.478Z,6.18
2018-12-18T13:30:16.097Z,6.40
2018-12-18T13:35:19.588Z,6.40
2018-12-18T13:40:23.128Z,6.34
2018-12-18T13:45:26.637Z,6.18
2018-12-18T13:50:30.177Z,5.90
2018-12-18T13:55:36.680Z,5.89
2018-12-18T14:00:39.212Z,5.95
2018-12-18T14:05:42.688Z,5.73
2018-12-18T14:10:46.237Z,5.64
2018-12-18T14:15:49.756Z,5.49
2018-12-18T14:20:54.681Z,5.38
2018-12-18T14:25:58.329Z,5.28
2018-12-18T14:31:01.741Z,5.20
2018-12-18T14:36:05.156Z,5.11
2018-12-18T14:41:08.669Z,5.08
2018-12-18T14:46:12.079Z,4.98
2018-12-18T14:51:15.540Z,4.83
2018-12-18T14:56:19.589Z,4.82
2018-12-18T15:01:23.072Z,4.70
2018-12-18T15:06:26.556Z,4.48
2018-12-18T15:11:30.152Z,4.47
2018-12-18T15:16:33.904Z,4.41
2018-12-18T15:21:37.460Z,4.27
2018-12-18T15:26:40.960Z,4.20
2018-12-18T15:31:44.492Z,4.14
2018-12-18T15:36:47.988Z,4.11
2018-12-18T15:41:51.464Z,4.00
2018-12-18T15:46:54.987Z,3.95
2018-12-18T15:51:58.475Z,3.88
2018-12-18T15:57:02.212Z,3.89
2018-12-18T16:02:05.773Z,3.87
2018-12-18T16:07:09.252Z,3.83
2018-12-18T16:12:12.808Z,3.74
2018-12-18T16:17:16.256Z,3.69
2018-12-18T16:22:19.716Z,3.62
2018-12-18T16:27:23.252Z,3.54
2018-12-18T16:32:26.692Z,3.44
2018-12-18T16:37:30.205Z,3.38
2018-12-18T16:42:33.764Z,3.38
2018-12-18T16:47:37.360Z,3.34
2018-12-18T16:52:40.855Z,3.24
2018-12-18T16:57:44.332Z,3.22
2018-12-18T17:02:47.842Z,3.14
2018-12-18T17:07:51.425Z,3.13
2018-12-18T17:12:56.131Z,3.01
2018-12-18T17:17:59.571Z,3.00
2018-12-18T17:23:03.122Z,2.97
2018-12-18T17:28:06.557Z,2.89
2018-12-18T17:33:09.983Z,2.85
2018-12-18T17:38:13.655Z,2.79
2018-12-18T17:43:17.980Z,2.80
2018-12-18T17:48:21.580Z,2.79
2018-12-18T17:53:25.135Z,2.77
2018-12-18T17:58:28.707Z,2.74
2018-12-18T18:03:32.520Z,2.72
2018-12-18T18:08:35.924Z,2.67
2018-12-18T18:13:39.449Z,2.71
2018-12-18T18:18:42.953Z,2.68
2018-12-18T18:23:46.392Z,2.69
2018-12-18T18:28:49.893Z,2.62
2018-12-18T18:33:53.348Z,2.59
2018-12-18T18:38:56.859Z,2.57
2018-12-18T18:44:00.429Z,2.55
2018-12-18T18:49:04.108Z,2.51
2018-12-18T18:54:07.572Z,2.56
2018-12-18T18:59:11.116Z,2.54
2018-12-18T19:04:14.592Z,2.50
2018-12-18T19:09:18.056Z,2.42
2018-12-18T19:14:22.470Z,2.45
2018-12-18T19:19:26.784Z,2.41
2018-12-18T19:24:30.565Z,2.36
2018-12-18T19:29:34.217Z,2.37
2018-12-18T19:34:37.765Z,2.35
2018-12-18T19:39:41.752Z,2.34
2018-12-18T19:44:45.640Z,2.31
2018-12-18T19:49:49.325Z,2.29
2018-12-18T19:54:52.726Z,2.26
2018-12-18T19:59:56.220Z,2.18
2018-12-18T20:04:59.831Z,2.14
2018-12-18T20:10:03.608Z,2.10
2018-12-18T20:15:07.644Z,2.13
2018-12-18T20:20:11.472Z,2.17
2018-12-18T20:25:15.028Z,2.18
2018-12-18T20:30:18.748Z,2.19
2018-12-18T20:35:22.240Z,2.19
2018-12-18T20:40:25.732Z,2.25
2018-12-18T20:45:29.340Z,2.21
2018-12-18T20:50:32.989Z,2.18
2018-12-18T20:55:36.396Z,2.12
2018-12-18T21:00:40.037Z,2.06
2018-12-18T21:05:48.699Z,2.01
2018-12-18T21:10:53.557Z,2.00
2018-12-18T21:16:03.193Z,1.82
2018-12-18T21:21:08.133Z,1.71
2018-12-18T21:26:11.947Z,1.66
2018-12-18T21:31:15.669Z,1.79
2018-12-18T21:36:19.136Z,1.82
2018-12-18T21:41:22.797Z,1.87
2018-12-18T21:46:26.358Z,1.91
2018-12-18T21:51:30.628Z,1.91
2018-12-18T21:56:34.175Z,1.93
2018-12-18T22:01:37.720Z,1.94
2018-12-18T22:06:41.406Z,1.91
2018-12-18T22:11:45.009Z,1.89
2018-12-18T22:16:48.713Z,1.92
2018-12-18T22:21:52.447Z,1.99
2018-12-18T22:26:55.949Z,1.99
2018-12-18T22:31:59.356Z,2.02
2018-12-18T22:37:02.850Z,1.97
2018-12-18T22:42:06.292Z,1.98
2018-12-18T22:47:10.696Z,1.96
2018-12-18T22:52:14.344Z,2.00
2018-12-18T22:57:17.757Z,1.91
2018-12-18T23:02:21.272Z,1.91
2018-12-18T23:07:24.697Z,1.91
2018-12-18T23:12:28.317Z,1.92
2018-12-18T23:17:32.141Z,1.92
2018-12-18T23:22:35.697Z,1.92
2018-12-18T23:27:39.183Z,1.88
2018-12-18T23:32:42.586Z,1.86
2018-12-18T23:37:46.121Z,1.83
2018-12-18T23:42:49.557Z,1.85
2018-12-18T23:47:52.972Z,1.90
2018-12-18T23:52:56.500Z,1.85
2018-12-18T23:57:59.897Z,1.86
